sensor_id;sensor_type;location;lat;lon;timestamp;P1;durP1;ratioP1;P2;durP2;ratioP2
51190;SDS011;37253;48.736;9.294;2022-10-16T00:00:37;29.75;;;12.60;;
51190;SDS011;37253;48.736;9.294;2022-10-16T00:02:38;25.48;;;12.27;;
51190;SDS011;37253;48.736;9.294;2022-10-16T00:04:39;23.83;;;11.95;;
51190;SDS011;37253;48.736;9.294;2022-10-16T00:06:39;27.05;;;11.52;;
51190;SDS011;37253;48.736;9.294;2022-10-16T00:08:40;26.27;;;12.15;;
51190;SDS011;37253;48.736;9.294;2022-10-16T00:10:40;21.52;;;10.80;;
51190;SDS011;37253;48.736;9.294;2022-10-16T00:12:41;26.52;;;12.23;;
51190;SDS011;37253;48.736;9.294;2022-10-16T00:14:41;25.40;;;11.32;;
51190;SDS011;37253;48.736;9.294;2022-10-16T00:16:43;22.65;;;10.55;;
51190;SDS011;37253;48.736;9.294;2022-10-16T00:18:44;21.50;;;11.48;;
51190;SDS011;37253;48.736;9.294;2022-10-16T00:20:44;19.20;;;10.52;;
51190;SDS011;37253;48.736;9.294;2022-10-16T00:22:44;24.08;;;11.18;;
51190;SDS011;37253;48.736;9.294;2022-10-16T00:24:44;26.55;;;11.23;;
51190;SDS011;37253;48.736;9.294;2022-10-16T00:26:45;26.95;;;11.93;;
51190;SDS011;37253;48.736;9.294;2022-10-16T00:28:46;25.15;;;12.05;;
51190;SDS011;37253;48.736;9.294;2022-10-16T00:30:47;21.65;;;10.95;;
51190;SDS011;37253;48.736;9.294;2022-10-16T00:32:48;28.13;;;11.35;;
51190;SDS011;37253;48.736;9.294;2022-10-16T00:34:48;22.67;;;10.95;;
51190;SDS011;37253;48.736;9.294;2022-10-16T00:36:48;25.67;;;11.73;;
51190;SDS011;37253;48.736;9.294;2022-10-16T00:38:52;24.05;;;10.98;;
51190;SDS011;37253;48.736;9.294;2022-10-16T00:40:54;22.75;;;10.95;;
51190;SDS011;37253;48.736;9.294;2022-10-16T00:42:54;19.92;;;11.05;;
51190;SDS011;37253;48.736;9.294;2022-10-16T00:44:56;22.02;;;10.63;;
51190;SDS011;37253;48.736;9.294;2022-10-16T00:46:57;18.17;;;10.80;;
51190;SDS011;37253;48.736;9.294;2022-10-16T00:51:02;18.63;;;10.18;;
51190;SDS011;37253;48.736;9.294;2022-10-16T00:53:03;19.80;;;10.23;;
51190;SDS011;37253;48.736;9.294;2022-10-16T00:55:04;22.75;;;10.52;;
51190;SDS011;37253;48.736;9.294;2022-10-16T00:57:05;20.88;;;10.43;;
51190;SDS011;37253;48.736;9.294;2022-10-16T00:59:08;19.67;;;9.82;;
51190;SDS011;37253;48.736;9.294;2022-10-16T01:01:20;21.40;;;10.18;;
51190;SDS011;37253;48.736;9.294;2022-10-16T01:03:22;20.80;;;9.93;;
51190;SDS011;37253;48.736;9.294;2022-10-16T01:05:32;25.23;;;10.80;;
51190;SDS011;37253;48.736;9.294;2022-10-16T01:07:41;20.20;;;10.20;;
51190;SDS011;37253;48.736;9.294;2022-10-16T01:09:58;21.05;;;10.68;;
51190;SDS011;37253;48.736;9.294;2022-10-16T01:12:09;19.45;;;10.23;;
51190;SDS011;37253;48.736;9.294;2022-10-16T01:14:19;18.17;;;9.80;;
51190;SDS011;37253;48.736;9.294;2022-10-16T01:16:38;20.48;;;9.93;;
51190;SDS011;37253;48.736;9.294;2022-10-16T01:18:43;19.05;;;9.45;;
51190;SDS011;37253;48.736;9.294;2022-10-16T01:20:53;21.48;;;10.18;;
51190;SDS011;37253;48.736;9.294;2022-10-16T01:25:05;22.77;;;10.57;;
51190;SDS011;37253;48.736;9.294;2022-10-16T01:27:25;19.23;;;10.20;;
51190;SDS011;37253;48.736;9.294;2022-10-16T01:29:34;20.30;;;9.73;;
51190;SDS011;37253;48.736;9.294;2022-10-16T01:31:39;22.63;;;10.52;;
51190;SDS011;37253;48.736;9.294;2022-10-16T01:33:45;18.65;;;9.57;;
51190;SDS011;37253;48.736;9.294;2022-10-16T01:35:51;20.98;;;9.95;;
51190;SDS011;37253;48.736;9.294;2022-10-16T01:39:55;21.63;;;10.10;;
51190;SDS011;37253;48.736;9.294;2022-10-16T01:42:01;20.42;;;9.98;;
51190;SDS011;37253;48.736;9.294;2022-10-16T01:44:08;21.08;;;9.95;;
51190;SDS011;37253;48.736;9.294;2022-10-16T01:46:11;19.52;;;9.88;;
51190;SDS011;37253;48.736;9.294;2022-10-16T01:48:14;18.23;;;9.10;;
51190;SDS011;37253;48.736;9.294;2022-10-16T01:50:17;14.75;;;9.15;;
51190;SDS011;37253;48.736;9.294;2022-10-16T01:52:19;21.02;;;9.38;;
51190;SDS011;37253;48.736;9.294;2022-10-16T01:54:22;18.17;;;9.68;;
51190;SDS011;37253;48.736;9.294;2022-10-16T01:56:23;16.38;;;9.00;;
51190;SDS011;37253;48.736;9.294;2022-10-16T01:58:25;17.90;;;9.45;;
51190;SDS011;37253;48.736;9.294;2022-10-16T02:00:27;19.15;;;9.48;;
51190;SDS011;37253;48.736;9.294;2022-10-16T02:02:28;20.73;;;9.65;;
51190;SDS011;37253;48.736;9.294;2022-10-16T02:04:33;17.35;;;9.20;;
51190;SDS011;37253;48.736;9.294;2022-10-16T02:06:36;20.13;;;9.82;;
51190;SDS011;37253;48.736;9.294;2022-10-16T02:08:36;17.67;;;9.48;;
51190;SDS011;37253;48.736;9.294;2022-10-16T02:10:38;16.30;;;9.27;;
51190;SDS011;37253;48.736;9.294;2022-10-16T02:12:39;18.05;;;9.77;;
51190;SDS011;37253;48.736;9.294;2022-10-16T02:14:42;16.77;;;9.63;;
51190;SDS011;37253;48.736;9.294;2022-10-16T02:16:44;17.65;;;8.73;;
51190;SDS011;37253;48.736;9.294;2022-10-16T02:18:45;20.63;;;9.73;;
51190;SDS011;37253;48.736;9.294;2022-10-16T02:20:53;18.88;;;9.38;;
51190;SDS011;37253;48.736;9.294;2022-10-16T02:22:56;17.42;;;8.88;;
51190;SDS011;37253;48.736;9.294;2022-10-16T02:24:58;23.23;;;9.15;;
51190;SDS011;37253;48.736;9.294;2022-10-16T02:27:13;16.98;;;9.38;;
51190;SDS011;37253;48.736;9.294;2022-10-16T02:29:18;18.73;;;8.65;;
51190;SDS011;37253;48.736;9.294;2022-10-16T02:31:23;17.58;;;8.95;;
51190;SDS011;37253;48.736;9.294;2022-10-16T02:33:27;16.52;;;8.70;;
51190;SDS011;37253;48.736;9.294;2022-10-16T02:35:29;17.02;;;9.13;;
51190;SDS011;37253;48.736;9.294;2022-10-16T02:37:30;18.35;;;9.00;;
51190;SDS011;37253;48.736;9.294;2022-10-16T02:39:30;16.63;;;9.32;;
51190;SDS011;37253;48.736;9.294;2022-10-16T02:41:31;19.02;;;9.07;;
51190;SDS011;37253;48.736;9.294;2022-10-16T02:43:32;14.07;;;8.57;;
51190;SDS011;37253;48.736;9.294;2022-10-16T02:45:33;18.63;;;8.80;;
51190;SDS011;37253;48.736;9.294;2022-10-16T02:47:34;16.15;;;9.05;;
51190;SDS011;37253;48.736;9.294;2022-10-16T02:49:34;15.68;;;8.55;;
51190;SDS011;37253;48.736;9.294;2022-10-16T02:51:34;16.42;;;8.95;;
51190;SDS011;37253;48.736;9.294;2022-10-16T02:53:34;13.90;;;8.75;;
51190;SDS011;37253;48.736;9.294;2022-10-16T02:55:35;16.13;;;8.70;;
51190;SDS011;37253;48.736;9.294;2022-10-16T02:57:36;15.27;;;8.77;;
51190;SDS011;37253;48.736;9.294;2022-10-16T02:59:37;17.00;;;8.90;;
51190;SDS011;37253;48.736;9.294;2022-10-16T03:01:37;17.08;;;8.60;;
51190;SDS011;37253;48.736;9.294;2022-10-16T03:03:38;14.88;;;8.32;;
51190;SDS011;37253;48.736;9.294;2022-10-16T03:05:38;14.02;;;8.85;;
51190;SDS011;37253;48.736;9.294;2022-10-16T03:07:38;16.92;;;8.50;;
51190;SDS011;37253;48.736;9.294;2022-10-16T03:09:39;14.18;;;8.45;;
51190;SDS011;37253;48.736;9.294;2022-10-16T03:11:39;15.75;;;7.95;;
51190;SDS011;37253;48.736;9.294;2022-10-16T03:13:39;17.38;;;9.20;;
51190;SDS011;37253;48.736;9.294;2022-10-16T03:15:40;16.05;;;8.95;;
51190;SDS011;37253;48.736;9.294;2022-10-16T03:17:40;16.17;;;8.60;;
51190;SDS011;37253;48.736;9.294;2022-10-16T03:19:40;15.90;;;9.13;;
51190;SDS011;37253;48.736;9.294;2022-10-16T03:21:41;17.52;;;8.55;;
51190;SDS011;37253;48.736;9.294;2022-10-16T03:23:41;15.15;;;8.07;;
51190;SDS011;37253;48.736;9.294;2022-10-16T03:25:41;13.75;;;7.53;;
51190;SDS011;37253;48.736;9.294;2022-10-16T03:27:41;15.15;;;9.00;;
51190;SDS011;37253;48.736;9.294;2022-10-16T03:29:42;16.25;;;8.60;;
51190;SDS011;37253;48.736;9.294;2022-10-16T03:31:42;14.90;;;8.68;;
51190;SDS011;37253;48.736;9.294;2022-10-16T03:33:42;16.63;;;8.50;;
51190;SDS011;37253;48.736;9.294;2022-10-16T03:35:43;15.63;;;8.70;;
51190;SDS011;37253;48.736;9.294;2022-10-16T03:37:51;15.20;;;8.07;;
51190;SDS011;37253;48.736;9.294;2022-10-16T03:39:51;13.52;;;8.23;;
51190;SDS011;37253;48.736;9.294;2022-10-16T03:41:52;14.88;;;8.18;;
51190;SDS011;37253;48.736;9.294;2022-10-16T03:43:52;14.07;;;8.10;;
51190;SDS011;37253;48.736;9.294;2022-10-16T03:45:52;14.95;;;8.18;;
51190;SDS011;37253;48.736;9.294;2022-10-16T03:47:52;15.38;;;7.88;;
51190;SDS011;37253;48.736;9.294;2022-10-16T03:49:53;16.38;;;7.97;;
51190;SDS011;37253;48.736;9.294;2022-10-16T03:51:53;14.93;;;7.47;;
51190;SDS011;37253;48.736;9.294;2022-10-16T03:53:53;14.60;;;8.00;;
51190;SDS011;37253;48.736;9.294;2022-10-16T03:55:54;13.88;;;7.57;;
51190;SDS011;37253;48.736;9.294;2022-10-16T03:57:54;14.88;;;7.88;;
51190;SDS011;37253;48.736;9.294;2022-10-16T03:59:54;15.18;;;7.47;;
51190;SDS011;37253;48.736;9.294;2022-10-16T04:01:54;14.98;;;8.02;;
51190;SDS011;37253;48.736;9.294;2022-10-16T04:03:55;13.32;;;7.45;;
51190;SDS011;37253;48.736;9.294;2022-10-16T04:05:55;15.88;;;7.88;;
51190;SDS011;37253;48.736;9.294;2022-10-16T04:07:55;14.45;;;8.10;;
51190;SDS011;37253;48.736;9.294;2022-10-16T04:09:56;12.93;;;7.35;;
51190;SDS011;37253;48.736;9.294;2022-10-16T04:11:57;11.77;;;7.55;;
51190;SDS011;37253;48.736;9.294;2022-10-16T04:13:58;15.07;;;7.75;;
51190;SDS011;37253;48.736;9.294;2022-10-16T04:15:58;12.20;;;7.45;;
51190;SDS011;37253;48.736;9.294;2022-10-16T04:17:58;14.40;;;7.15;;
51190;SDS011;37253;48.736;9.294;2022-10-16T04:19:58;15.15;;;8.18;;
51190;SDS011;37253;48.736;9.294;2022-10-16T04:21:59;13.43;;;7.68;;
51190;SDS011;37253;48.736;9.294;2022-10-16T04:23:59;13.90;;;7.10;;
51190;SDS011;37253;48.736;9.294;2022-10-16T04:25:59;13.73;;;8.35;;
51190;SDS011;37253;48.736;9.294;2022-10-16T04:28:00;11.65;;;7.10;;
51190;SDS011;37253;48.736;9.294;2022-10-16T04:30:00;13.10;;;7.55;;
51190;SDS011;37253;48.736;9.294;2022-10-16T04:32:01;10.52;;;7.18;;
51190;SDS011;37253;48.736;9.294;2022-10-16T04:34:01;13.82;;;7.90;;
51190;SDS011;37253;48.736;9.294;2022-10-16T04:36:01;13.70;;;7.18;;
51190;SDS011;37253;48.736;9.294;2022-10-16T04:38:02;12.70;;;7.32;;
51190;SDS011;37253;48.736;9.294;2022-10-16T04:40:03;12.82;;;7.53;;
51190;SDS011;37253;48.736;9.294;2022-10-16T04:42:03;12.38;;;7.35;;
51190;SDS011;37253;48.736;9.294;2022-10-16T04:44:04;11.30;;;6.80;;
51190;SDS011;37253;48.736;9.294;2022-10-16T04:46:04;11.98;;;6.57;;
51190;SDS011;37253;48.736;9.294;2022-10-16T04:48:05;12.40;;;7.07;;
51190;SDS011;37253;48.736;9.294;2022-10-16T04:50:05;10.25;;;6.38;;
51190;SDS011;37253;48.736;9.294;2022-10-16T04:52:06;12.82;;;6.70;;
51190;SDS011;37253;48.736;9.294;2022-10-16T04:54:06;12.48;;;6.75;;
51190;SDS011;37253;48.736;9.294;2022-10-16T04:56:06;13.60;;;7.07;;
51190;SDS011;37253;48.736;9.294;2022-10-16T04:58:07;13.27;;;7.35;;
51190;SDS011;37253;48.736;9.294;2022-10-16T05:00:08;16.23;;;7.25;;
51190;SDS011;37253;48.736;9.294;2022-10-16T05:02:08;11.50;;;7.03;;
51190;SDS011;37253;48.736;9.294;2022-10-16T05:04:09;10.95;;;6.90;;
51190;SDS011;37253;48.736;9.294;2022-10-16T05:06:09;11.50;;;7.30;;
51190;SDS011;37253;48.736;9.294;2022-10-16T05:08:10;12.00;;;6.68;;
51190;SDS011;37253;48.736;9.294;2022-10-16T05:10:11;12.05;;;7.28;;
51190;SDS011;37253;48.736;9.294;2022-10-16T05:12:11;10.30;;;6.63;;
51190;SDS011;37253;48.736;9.294;2022-10-16T05:14:12;12.15;;;6.88;;
51190;SDS011;37253;48.736;9.294;2022-10-16T05:16:12;14.50;;;7.27;;
51190;SDS011;37253;48.736;9.294;2022-10-16T05:18:13;13.38;;;7.60;;
51190;SDS011;37253;48.736;9.294;2022-10-16T05:20:13;11.82;;;7.15;;
51190;SDS011;37253;48.736;9.294;2022-10-16T05:22:13;9.73;;;6.20;;
51190;SDS011;37253;48.736;9.294;2022-10-16T05:24:14;13.68;;;7.25;;
51190;SDS011;37253;48.736;9.294;2022-10-16T05:26:14;13.18;;;7.00;;
51190;SDS011;37253;48.736;9.294;2022-10-16T05:28:14;12.77;;;7.10;;
51190;SDS011;37253;48.736;9.294;2022-10-16T05:30:15;11.68;;;7.22;;
51190;SDS011;37253;48.736;9.294;2022-10-16T05:32:16;13.00;;;7.07;;
51190;SDS011;37253;48.736;9.294;2022-10-16T05:34:17;11.63;;;6.65;;
51190;SDS011;37253;48.736;9.294;2022-10-16T05:36:17;12.88;;;6.60;;
51190;SDS011;37253;48.736;9.294;2022-10-16T05:38:18;12.50;;;6.80;;
51190;SDS011;37253;48.736;9.294;2022-10-16T05:40:21;13.23;;;6.57;;
51190;SDS011;37253;48.736;9.294;2022-10-16T05:42:22;10.10;;;6.60;;
51190;SDS011;37253;48.736;9.294;2022-10-16T05:44:22;11.40;;;6.32;;
51190;SDS011;37253;48.736;9.294;2022-10-16T05:46:22;13.05;;;7.18;;
51190;SDS011;37253;48.736;9.294;2022-10-16T05:48:23;14.73;;;7.13;;
51190;SDS011;37253;48.736;9.294;2022-10-16T05:50:23;16.40;;;6.53;;
51190;SDS011;37253;48.736;9.294;2022-10-16T05:52:23;17.52;;;6.75;;
51190;SDS011;37253;48.736;9.294;2022-10-16T05:54:24;16.10;;;7.30;;
51190;SDS011;37253;48.736;9.294;2022-10-16T05:56:24;18.05;;;5.97;;
51190;SDS011;37253;48.736;9.294;2022-10-16T05:58:25;14.05;;;6.13;;
51190;SDS011;37253;48.736;9.294;2022-10-16T06:00:28;21.63;;;6.78;;
51190;SDS011;37253;48.736;9.294;2022-10-16T06:02:28;23.30;;;6.68;;
51190;SDS011;37253;48.736;9.294;2022-10-16T06:04:29;18.00;;;6.63;;
51190;SDS011;37253;48.736;9.294;2022-10-16T06:06:29;19.45;;;7.47;;
51190;SDS011;37253;48.736;9.294;2022-10-16T06:08:30;20.92;;;6.65;;
51190;SDS011;37253;48.736;9.294;2022-10-16T06:10:31;15.05;;;6.53;;
51190;SDS011;37253;48.736;9.294;2022-10-16T06:12:31;19.50;;;6.97;;
51190;SDS011;37253;48.736;9.294;2022-10-16T06:14:32;23.42;;;6.15;;
51190;SDS011;37253;48.736;9.294;2022-10-16T06:16:33;18.38;;;6.57;;
51190;SDS011;37253;48.736;9.294;2022-10-16T06:18:34;21.92;;;6.93;;
51190;SDS011;37253;48.736;9.294;2022-10-16T06:20:35;18.17;;;6.35;;
51190;SDS011;37253;48.736;9.294;2022-10-16T06:22:35;21.00;;;6.43;;
51190;SDS011;37253;48.736;9.294;2022-10-16T06:24:36;21.30;;;5.88;;
51190;SDS011;37253;48.736;9.294;2022-10-16T06:26:36;15.10;;;5.90;;
51190;SDS011;37253;48.736;9.294;2022-10-16T06:28:37;16.00;;;6.10;;
51190;SDS011;37253;48.736;9.294;2022-10-16T06:30:38;17.08;;;6.25;;
51190;SDS011;37253;48.736;9.294;2022-10-16T06:32:38;17.73;;;6.70;;
51190;SDS011;37253;48.736;9.294;2022-10-16T06:34:38;16.13;;;6.28;;
51190;SDS011;37253;48.736;9.294;2022-10-16T06:36:40;21.70;;;5.90;;
51190;SDS011;37253;48.736;9.294;2022-10-16T06:38:41;16.00;;;5.95;;
51190;SDS011;37253;48.736;9.294;2022-10-16T06:40:43;14.80;;;6.10;;
51190;SDS011;37253;48.736;9.294;2022-10-16T06:42:43;15.98;;;5.82;;
51190;SDS011;37253;48.736;9.294;2022-10-16T06:44:44;15.00;;;6.15;;
51190;SDS011;37253;48.736;9.294;2022-10-16T06:46:44;14.20;;;5.80;;
51190;SDS011;37253;48.736;9.294;2022-10-16T06:48:45;14.10;;;6.00;;
51190;SDS011;37253;48.736;9.294;2022-10-16T06:50:54;12.23;;;5.65;;
51190;SDS011;37253;48.736;9.294;2022-10-16T06:53:02;12.85;;;5.40;;
51190;SDS011;37253;48.736;9.294;2022-10-16T06:55:02;18.23;;;6.53;;
51190;SDS011;37253;48.736;9.294;2022-10-16T06:57:03;17.33;;;5.88;;
51190;SDS011;37253;48.736;9.294;2022-10-16T06:59:03;12.80;;;5.07;;
51190;SDS011;37253;48.736;9.294;2022-10-16T07:01:04;17.95;;;6.18;;
51190;SDS011;37253;48.736;9.294;2022-10-16T07:03:05;17.50;;;5.60;;
51190;SDS011;37253;48.736;9.294;2022-10-16T07:05:05;10.05;;;5.32;;
51190;SDS011;37253;48.736;9.294;2022-10-16T07:07:06;12.95;;;5.72;;
51190;SDS011;37253;48.736;9.294;2022-10-16T07:09:08;13.05;;;5.93;;
51190;SDS011;37253;48.736;9.294;2022-10-16T07:13:11;11.32;;;5.80;;
51190;SDS011;37253;48.736;9.294;2022-10-16T07:15:13;10.98;;;5.65;;
51190;SDS011;37253;48.736;9.294;2022-10-16T07:17:14;14.02;;;5.70;;
51190;SDS011;37253;48.736;9.294;2022-10-16T07:19:14;9.05;;;5.72;;
51190;SDS011;37253;48.736;9.294;2022-10-16T07:21:17;12.10;;;5.63;;
51190;SDS011;37253;48.736;9.294;2022-10-16T07:25:20;12.20;;;5.68;;
51190;SDS011;37253;48.736;9.294;2022-10-16T07:27:20;8.63;;;5.20;;
51190;SDS011;37253;48.736;9.294;2022-10-16T07:29:23;11.00;;;4.72;;
51190;SDS011;37253;48.736;9.294;2022-10-16T07:31:24;12.80;;;5.10;;
51190;SDS011;37253;48.736;9.294;2022-10-16T07:33:25;8.93;;;4.25;;
51190;SDS011;37253;48.736;9.294;2022-10-16T07:35:25;11.85;;;4.88;;
51190;SDS011;37253;48.736;9.294;2022-10-16T07:37:25;11.20;;;4.95;;
51190;SDS011;37253;48.736;9.294;2022-10-16T07:39:25;11.32;;;5.07;;
51190;SDS011;37253;48.736;9.294;2022-10-16T07:41:26;10.95;;;4.97;;
51190;SDS011;37253;48.736;9.294;2022-10-16T07:43:27;10.85;;;5.32;;
51190;SDS011;37253;48.736;9.294;2022-10-16T07:45:27;10.93;;;5.30;;
51190;SDS011;37253;48.736;9.294;2022-10-16T07:47:28;12.48;;;4.90;;
51190;SDS011;37253;48.736;9.294;2022-10-16T07:49:28;10.48;;;5.50;;
51190;SDS011;37253;48.736;9.294;2022-10-16T07:51:28;14.57;;;4.90;;
51190;SDS011;37253;48.736;9.294;2022-10-16T07:53:29;10.95;;;4.88;;
51190;SDS011;37253;48.736;9.294;2022-10-16T07:55:29;11.60;;;5.03;;
51190;SDS011;37253;48.736;9.294;2022-10-16T07:57:29;12.45;;;5.43;;
51190;SDS011;37253;48.736;9.294;2022-10-16T07:59:30;14.75;;;5.55;;
51190;SDS011;37253;48.736;9.294;2022-10-16T08:01:30;14.85;;;5.22;;
51190;SDS011;37253;48.736;9.294;2022-10-16T08:03:30;15.23;;;5.35;;
51190;SDS011;37253;48.736;9.294;2022-10-16T08:05:31;19.77;;;4.88;;
51190;SDS011;37253;48.736;9.294;2022-10-16T08:07:32;18.65;;;4.80;;
51190;SDS011;37253;48.736;9.294;2022-10-16T08:09:32;18.70;;;4.85;;
51190;SDS011;37253;48.736;9.294;2022-10-16T08:11:33;13.25;;;5.20;;
51190;SDS011;37253;48.736;9.294;2022-10-16T08:13:33;13.75;;;4.38;;
51190;SDS011;37253;48.736;9.294;2022-10-16T08:15:34;15.05;;;5.22;;
51190;SDS011;37253;48.736;9.294;2022-10-16T08:17:34;16.42;;;5.15;;
51190;SDS011;37253;48.736;9.294;2022-10-16T08:19:34;14.15;;;4.65;;
51190;SDS011;37253;48.736;9.294;2022-10-16T08:21:35;19.00;;;4.68;;
51190;SDS011;37253;48.736;9.294;2022-10-16T08:23:35;10.75;;;4.13;;
51190;SDS011;37253;48.736;9.294;2022-10-16T08:25:35;9.93;;;4.15;;
51190;SDS011;37253;48.736;9.294;2022-10-16T08:27:36;9.52;;;4.43;;
51190;SDS011;37253;48.736;9.294;2022-10-16T08:29:36;13.30;;;4.30;;
51190;SDS011;37253;48.736;9.294;2022-10-16T08:31:38;13.38;;;4.40;;
51190;SDS011;37253;48.736;9.294;2022-10-16T08:33:39;11.38;;;3.83;;
51190;SDS011;37253;48.736;9.294;2022-10-16T08:35:41;11.98;;;4.57;;
51190;SDS011;37253;48.736;9.294;2022-10-16T08:37:42;9.82;;;3.92;;
51190;SDS011;37253;48.736;9.294;2022-10-16T08:39:42;7.68;;;4.03;;
51190;SDS011;37253;48.736;9.294;2022-10-16T08:46:41;16.85;;;4.40;;
51190;SDS011;37253;48.736;9.294;2022-10-16T08:51:10;10.10;;;4.32;;
51190;SDS011;37253;48.736;9.294;2022-10-16T08:53:21;13.60;;;4.00;;
51190;SDS011;37253;48.736;9.294;2022-10-16T08:55:29;8.40;;;3.65;;
51190;SDS011;37253;48.736;9.294;2022-10-16T08:57:32;13.00;;;3.67;;
51190;SDS011;37253;48.736;9.294;2022-10-16T08:59:32;10.00;;;3.63;;
51190;SDS011;37253;48.736;9.294;2022-10-16T09:01:54;8.10;;;3.60;;
51190;SDS011;37253;48.736;9.294;2022-10-16T09:16:19;14.82;;;3.53;;
51190;SDS011;37253;48.736;9.294;2022-10-16T09:18:26;9.23;;;3.05;;
51190;SDS011;37253;48.736;9.294;2022-10-16T09:20:38;8.73;;;3.88;;
51190;SDS011;37253;48.736;9.294;2022-10-16T09:25:10;9.18;;;3.10;;
51190;SDS011;37253;48.736;9.294;2022-10-16T09:27:13;7.25;;;2.97;;
51190;SDS011;37253;48.736;9.294;2022-10-16T09:29:14;7.07;;;3.33;;
51190;SDS011;37253;48.736;9.294;2022-10-16T09:31:17;8.02;;;3.80;;
51190;SDS011;37253;48.736;9.294;2022-10-16T09:35:21;13.40;;;3.70;;
51190;SDS011;37253;48.736;9.294;2022-10-16T09:37:24;7.00;;;3.08;;
51190;SDS011;37253;48.736;9.294;2022-10-16T09:39:24;6.10;;;3.10;;
51190;SDS011;37253;48.736;9.294;2022-10-16T09:41:25;6.60;;;3.50;;
51190;SDS011;37253;48.736;9.294;2022-10-16T09:43:28;8.55;;;3.33;;
51190;SDS011;37253;48.736;9.294;2022-10-16T09:45:31;9.65;;;3.20;;
51190;SDS011;37253;48.736;9.294;2022-10-16T09:47:32;7.75;;;3.95;;
51190;SDS011;37253;48.736;9.294;2022-10-16T09:49:37;10.80;;;3.35;;
51190;SDS011;37253;48.736;9.294;2022-10-16T09:51:37;7.40;;;2.92;;
51190;SDS011;37253;48.736;9.294;2022-10-16T09:53:39;10.10;;;3.08;;
51190;SDS011;37253;48.736;9.294;2022-10-16T09:55:49;10.27;;;3.58;;
51190;SDS011;37253;48.736;9.294;2022-10-16T09:59:52;10.20;;;3.05;;
51190;SDS011;37253;48.736;9.294;2022-10-16T10:01:53;14.20;;;3.08;;
51190;SDS011;37253;48.736;9.294;2022-10-16T10:03:55;8.88;;;3.47;;
51190;SDS011;37253;48.736;9.294;2022-10-16T10:06:06;5.43;;;3.08;;
51190;SDS011;37253;48.736;9.294;2022-10-16T10:08:16;6.38;;;2.95;;
51190;SDS011;37253;48.736;9.294;2022-10-16T10:10:25;10.48;;;3.08;;
51190;SDS011;37253;48.736;9.294;2022-10-16T10:12:30;8.52;;;2.90;;
51190;SDS011;37253;48.736;9.294;2022-10-16T10:14:35;7.03;;;2.88;;
51190;SDS011;37253;48.736;9.294;2022-10-16T10:16:36;6.75;;;3.00;;
51190;SDS011;37253;48.736;9.294;2022-10-16T10:18:36;7.57;;;3.05;;
51190;SDS011;37253;48.736;9.294;2022-10-16T10:20:37;9.38;;;2.58;;
51190;SDS011;37253;48.736;9.294;2022-10-16T10:24:39;5.60;;;2.88;;
51190;SDS011;37253;48.736;9.294;2022-10-16T10:26:41;7.60;;;3.00;;
51190;SDS011;37253;48.736;9.294;2022-10-16T10:31:06;6.05;;;3.03;;
51190;SDS011;37253;48.736;9.294;2022-10-16T10:36:03;7.55;;;4.00;;
51190;SDS011;37253;48.736;9.294;2022-10-16T10:50:02;76.28;;;26.65;;
51190;SDS011;37253;48.736;9.294;2022-10-16T10:59:28;63.75;;;28.52;;
51190;SDS011;37253;48.736;9.294;2022-10-16T11:06:17;71.70;;;28.27;;
51190;SDS011;37253;48.736;9.294;2022-10-16T11:08:18;73.10;;;29.23;;
51190;SDS011;37253;48.736;9.294;2022-10-16T11:10:22;70.80;;;28.02;;
51190;SDS011;37253;48.736;9.294;2022-10-16T11:14:53;78.40;;;26.83;;
51190;SDS011;37253;48.736;9.294;2022-10-16T11:17:05;71.85;;;28.05;;
51190;SDS011;37253;48.736;9.294;2022-10-16T11:21:39;76.72;;;28.45;;
51190;SDS011;37253;48.736;9.294;2022-10-16T11:23:47;82.70;;;31.13;;
51190;SDS011;37253;48.736;9.294;2022-10-16T11:25:53;73.93;;;30.60;;
51190;SDS011;37253;48.736;9.294;2022-10-16T11:28:11;77.72;;;30.15;;
51190;SDS011;37253;48.736;9.294;2022-10-16T11:30:34;84.25;;;33.85;;
51190;SDS011;37253;48.736;9.294;2022-10-16T11:35:00;81.65;;;32.80;;
51190;SDS011;37253;48.736;9.294;2022-10-16T11:41:24;98.50;;;35.00;;
51190;SDS011;37253;48.736;9.294;2022-10-16T11:43:28;88.68;;;35.42;;
51190;SDS011;37253;48.736;9.294;2022-10-16T11:45:33;83.25;;;34.45;;
51190;SDS011;37253;48.736;9.294;2022-10-16T11:47:37;83.68;;;36.53;;
51190;SDS011;37253;48.736;9.294;2022-10-16T11:49:41;84.57;;;36.17;;
51190;SDS011;37253;48.736;9.294;2022-10-16T11:51:42;90.45;;;37.88;;
51190;SDS011;37253;48.736;9.294;2022-10-16T11:56:35;88.53;;;37.88;;
51190;SDS011;37253;48.736;9.294;2022-10-16T12:05:12;86.35;;;36.25;;
51190;SDS011;37253;48.736;9.294;2022-10-16T12:07:19;97.00;;;38.03;;
51190;SDS011;37253;48.736;9.294;2022-10-16T12:09:26;86.78;;;35.95;;
51190;SDS011;37253;48.736;9.294;2022-10-16T12:15:30;79.65;;;34.20;;
51190;SDS011;37253;48.736;9.294;2022-10-16T12:17:36;81.75;;;32.58;;
51190;SDS011;37253;48.736;9.294;2022-10-16T12:19:37;79.82;;;33.60;;
51190;SDS011;37253;48.736;9.294;2022-10-16T12:21:38;79.32;;;33.28;;
51190;SDS011;37253;48.736;9.294;2022-10-16T12:23:46;76.60;;;32.53;;
51190;SDS011;37253;48.736;9.294;2022-10-16T12:25:57;76.63;;;31.60;;
51190;SDS011;37253;48.736;9.294;2022-10-16T12:28:03;69.88;;;30.98;;
51190;SDS011;37253;48.736;9.294;2022-10-16T12:30:05;72.22;;;29.92;;
51190;SDS011;37253;48.736;9.294;2022-10-16T12:34:41;77.80;;;31.10;;
51190;SDS011;37253;48.736;9.294;2022-10-16T12:36:42;72.55;;;30.42;;
51190;SDS011;37253;48.736;9.294;2022-10-16T12:38:52;67.90;;;30.42;;
51190;SDS011;37253;48.736;9.294;2022-10-16T12:41:03;68.35;;;29.33;;
51190;SDS011;37253;48.736;9.294;2022-10-16T12:43:11;73.80;;;29.33;;
51190;SDS011;37253;48.736;9.294;2022-10-16T12:45:30;60.70;;;27.85;;
51190;SDS011;37253;48.736;9.294;2022-10-16T12:49:36;67.47;;;27.05;;
51190;SDS011;37253;48.736;9.294;2022-10-16T12:51:38;63.00;;;28.38;;
51190;SDS011;37253;48.736;9.294;2022-10-16T12:53:40;66.20;;;28.45;;
51190;SDS011;37253;48.736;9.294;2022-10-16T12:55:42;60.33;;;27.17;;
51190;SDS011;37253;48.736;9.294;2022-10-16T12:58:09;64.32;;;29.00;;
51190;SDS011;37253;48.736;9.294;2022-10-16T13:04:43;56.38;;;26.40;;
51190;SDS011;37253;48.736;9.294;2022-10-16T13:20:29;55.63;;;25.33;;
51190;SDS011;37253;48.736;9.294;2022-10-16T13:25:21;56.75;;;24.65;;
51190;SDS011;37253;48.736;9.294;2022-10-16T13:29:29;48.83;;;22.90;;
51190;SDS011;37253;48.736;9.294;2022-10-16T13:31:30;52.63;;;23.35;;
51190;SDS011;37253;48.736;9.294;2022-10-16T13:33:39;53.08;;;22.88;;
51190;SDS011;37253;48.736;9.294;2022-10-16T13:35:51;49.33;;;23.48;;
51190;SDS011;37253;48.736;9.294;2022-10-16T13:40:29;51.67;;;23.05;;
51190;SDS011;37253;48.736;9.294;2022-10-16T13:42:29;44.95;;;22.05;;
51190;SDS011;37253;48.736;9.294;2022-10-16T13:44:31;44.00;;;22.08;;
51190;SDS011;37253;48.736;9.294;2022-10-16T13:46:36;48.47;;;22.80;;
51190;SDS011;37253;48.736;9.294;2022-10-16T13:48:37;48.38;;;22.85;;
51190;SDS011;37253;48.736;9.294;2022-10-16T13:50:37;49.85;;;20.73;;
51190;SDS011;37253;48.736;9.294;2022-10-16T13:52:38;42.83;;;20.30;;
51190;SDS011;37253;48.736;9.294;2022-10-16T13:54:38;42.50;;;19.67;;
51190;SDS011;37253;48.736;9.294;2022-10-16T13:56:39;41.03;;;20.48;;
51190;SDS011;37253;48.736;9.294;2022-10-16T13:58:40;43.55;;;20.45;;
51190;SDS011;37253;48.736;9.294;2022-10-16T14:00:41;47.95;;;21.30;;
51190;SDS011;37253;48.736;9.294;2022-10-16T14:02:55;47.17;;;19.92;;
51190;SDS011;37253;48.736;9.294;2022-10-16T14:04:58;43.15;;;19.65;;
51190;SDS011;37253;48.736;9.294;2022-10-16T14:06:59;40.22;;;18.00;;